KTYR/TYR METAR and TAF weather

Enter ICAO airport designator
Station Type Date Time Source
KTYR METAR 2021/07/28 19:09 UTC NOAA

KTYR 281909Z 22004KT 8SM -TSRA SCT029 BKN055 BKN070 32/25 A3003 RMK AO2 LTG DSNT SW AND W TSB03 P0003 T03170250


Station Type Date Time Source
KTYR Decoded METAR 2021/07/28 19:09 UTC NOAA

TYLER POUNDS FIELDS, TX, United States (KTYR) 32-21N 095-24W 165M
Jul 28, 2021 - 03:09 PM EDT / 2021.07.28 1909 UTC
Wind: from the SW (220 degrees) at 5 MPH (4 KT):0
Visibility: 8 mile(s):0
Sky conditions: mostly cloudy
Weather: light rain with thunder; Lightning observed
Precipitation last hour: 0.03 inches
Temperature: 89.1 F (31.7 C)
Heat index: 101.5 F (38.6 C):1
Dew Point: 77.0 F (25.0 C)
Relative Humidity: 67%
Pressure (altimeter): 30.03 in. Hg (1016 hPa)
ob: KTYR 281909Z 22004KT 8SM -TSRA SCT029 BKN055 BKN070 32/25 A3003 RMK AO2 LTG DSNT SW AND W TSB03 P0003 T03170250
cycle: 19

Station Type Date Time Source
KTYR TAF 2021/07/28 18:22 UTC NOAA

TAF KTYR 281720Z 2818/2918 VRB05KT P6SM VCTS SCT040CB
FM282100 VRB03KT P6SM VCTS SCT100CB
FM290000 VRB03KT P6SM FEW250
FM290600 VRB03KT P6SM BKN250
FM291500 13004KT 6SM BR BKN250

Example: see airport list